sensor_id;sensor_type;location;lat;lon;timestamp;temperature;humidity
32728;DHT22;55292;51.844;19.246;2023-08-24T00:01:02;14.80;99.90
32728;DHT22;55292;51.844;19.246;2023-08-24T00:06:09;14.80;99.90
32728;DHT22;55292;51.844;19.246;2023-08-24T00:11:13;14.80;99.90
32728;DHT22;55292;51.844;19.246;2023-08-24T00:16:20;14.80;99.90
32728;DHT22;55292;51.844;19.246;2023-08-24T00:21:23;14.90;99.90
32728;DHT22;55292;51.844;19.246;2023-08-24T00:26:26;14.90;99.90
32728;DHT22;55292;51.844;19.246;2023-08-24T00:31:29;14.70;99.90
32728;DHT22;55292;51.844;19.246;2023-08-24T00:36:34;14.50;99.90
32728;DHT22;55292;51.844;19.246;2023-08-24T00:41:36;14.50;99.90
32728;DHT22;55292;51.844;19.246;2023-08-24T00:46:39;14.40;99.90
32728;DHT22;55292;51.844;19.246;2023-08-24T00:51:43;14.40;99.90
32728;DHT22;55292;51.844;19.246;2023-08-24T00:56:46;14.20;99.90
32728;DHT22;55292;51.844;19.246;2023-08-24T01:01:51;14.10;99.90
32728;DHT22;55292;51.844;19.246;2023-08-24T01:06:54;14.00;99.90
32728;DHT22;55292;51.844;19.246;2023-08-24T01:17:15;13.70;99.90
32728;DHT22;55292;51.844;19.246;2023-08-24T01:27:33;13.80;99.90
32728;DHT22;55292;51.844;19.246;2023-08-24T01:32:39;13.70;99.90
32728;DHT22;55292;51.844;19.246;2023-08-24T01:37:42;13.70;99.90
32728;DHT22;55292;51.844;19.246;2023-08-24T01:42:56;13.60;99.90
32728;DHT22;55292;51.844;19.246;2023-08-24T01:48:02;13.50;99.90
32728;DHT22;55292;51.844;19.246;2023-08-24T01:53:09;13.50;99.90
32728;DHT22;55292;51.844;19.246;2023-08-24T01:58:11;13.30;99.90
32728;DHT22;55292;51.844;19.246;2023-08-24T02:03:14;13.30;99.90
32728;DHT22;55292;51.844;19.246;2023-08-24T02:08:17;13.20;99.90
32728;DHT22;55292;51.844;19.246;2023-08-24T02:13:20;13.30;99.90
32728;DHT22;55292;51.844;19.246;2023-08-24T02:18:23;16.70;99.90
32728;DHT22;55292;51.844;19.246;2023-08-24T02:23:26;13.20;99.90
32728;DHT22;55292;51.844;19.246;2023-08-24T02:28:29;13.20;99.90
32728;DHT22;55292;51.844;19.246;2023-08-24T02:33:32;13.00;99.90
32728;DHT22;55292;51.844;19.246;2023-08-24T02:38:35;13.00;99.90
32728;DHT22;55292;51.844;19.246;2023-08-24T02:43:38;13.00;99.90
32728;DHT22;55292;51.844;19.246;2023-08-24T02:48:40;12.90;99.90
32728;DHT22;55292;51.844;19.246;2023-08-24T02:53:43;13.00;99.90
32728;DHT22;55292;51.844;19.246;2023-08-24T02:58:46;13.10;99.90
32728;DHT22;55292;51.844;19.246;2023-08-24T03:03:49;13.00;99.90
32728;DHT22;55292;51.844;19.246;2023-08-24T03:08:52;12.90;99.90
32728;DHT22;55292;51.844;19.246;2023-08-24T03:13:54;12.90;99.90
32728;DHT22;55292;51.844;19.246;2023-08-24T03:18:57;12.80;99.90
32728;DHT22;55292;51.844;19.246;2023-08-24T03:24:00;12.80;99.90
32728;DHT22;55292;51.844;19.246;2023-08-24T03:29:02;12.80;99.90
32728;DHT22;55292;51.844;19.246;2023-08-24T03:34:05;12.90;99.90
32728;DHT22;55292;51.844;19.246;2023-08-24T03:44:12;12.90;99.90
32728;DHT22;55292;51.844;19.246;2023-08-24T03:54:18;12.90;99.90
32728;DHT22;55292;51.844;19.246;2023-08-24T03:59:20;12.90;99.90
32728;DHT22;55292;51.844;19.246;2023-08-24T04:04:24;13.00;99.90
32728;DHT22;55292;51.844;19.246;2023-08-24T04:09:26;13.40;99.90
32728;DHT22;55292;51.844;19.246;2023-08-24T04:14:29;13.80;99.90
32728;DHT22;55292;51.844;19.246;2023-08-24T04:19:32;14.40;99.90
32728;DHT22;55292;51.844;19.246;2023-08-24T04:24:34;15.10;99.90
32728;DHT22;55292;51.844;19.246;2023-08-24T04:29:37;15.90;99.90
32728;DHT22;55292;51.844;19.246;2023-08-24T04:34:40;17.00;99.90
32728;DHT22;55292;51.844;19.246;2023-08-24T04:39:42;17.80;99.90
32728;DHT22;55292;51.844;19.246;2023-08-24T04:44:45;18.90;99.90
32728;DHT22;55292;51.844;19.246;2023-08-24T04:49:48;19.90;99.90
32728;DHT22;55292;51.844;19.246;2023-08-24T04:54:50;20.50;99.90
32728;DHT22;55292;51.844;19.246;2023-08-24T04:59:53;21.10;99.90
32728;DHT22;55292;51.844;19.246;2023-08-24T05:04:57;22.20;99.90
32728;DHT22;55292;51.844;19.246;2023-08-24T05:10:00;22.90;99.90
32728;DHT22;55292;51.844;19.246;2023-08-24T05:15:03;23.60;99.90
32728;DHT22;55292;51.844;19.246;2023-08-24T05:20:07;23.90;99.90
32728;DHT22;55292;51.844;19.246;2023-08-24T05:25:14;24.40;99.90
32728;DHT22;55292;51.844;19.246;2023-08-24T05:30:19;25.10;99.90
32728;DHT22;55292;51.844;19.246;2023-08-24T05:35:21;25.10;99.90
32728;DHT22;55292;51.844;19.246;2023-08-24T05:40:25;24.40;99.90
32728;DHT22;55292;51.844;19.246;2023-08-24T05:45:27;22.70;99.90
32728;DHT22;55292;51.844;19.246;2023-08-24T05:50:30;21.60;99.90
32728;DHT22;55292;51.844;19.246;2023-08-24T05:55:33;21.20;99.90
32728;DHT22;55292;51.844;19.246;2023-08-24T06:00:35;21.10;99.90
32728;DHT22;55292;51.844;19.246;2023-08-24T06:05:38;21.00;99.90
32728;DHT22;55292;51.844;19.246;2023-08-24T06:10:41;20.90;99.90
32728;DHT22;55292;51.844;19.246;2023-08-24T06:15:44;21.10;99.90
32728;DHT22;55292;51.844;19.246;2023-08-24T06:20:47;21.30;99.90
32728;DHT22;55292;51.844;19.246;2023-08-24T06:25:53;21.50;99.90
32728;DHT22;55292;51.844;19.246;2023-08-24T06:30:56;22.00;99.90
32728;DHT22;55292;51.844;19.246;2023-08-24T06:35:59;22.40;99.90
32728;DHT22;55292;51.844;19.246;2023-08-24T06:47:17;22.40;99.90
32728;DHT22;55292;51.844;19.246;2023-08-24T06:52:20;22.40;99.90
32728;DHT22;55292;51.844;19.246;2023-08-24T06:57:22;22.60;99.90
32728;DHT22;55292;51.844;19.246;2023-08-24T07:02:27;22.90;99.90
32728;DHT22;55292;51.844;19.246;2023-08-24T07:07:30;23.30;99.90
32728;DHT22;55292;51.844;19.246;2023-08-24T07:12:33;23.70;99.90
32728;DHT22;55292;51.844;19.246;2023-08-24T07:17:36;24.10;99.90
32728;DHT22;55292;51.844;19.246;2023-08-24T07:22:39;24.20;99.90
32728;DHT22;55292;51.844;19.246;2023-08-24T07:27:42;24.10;99.90
32728;DHT22;55292;51.844;19.246;2023-08-24T07:32:45;24.00;99.90
32728;DHT22;55292;51.844;19.246;2023-08-24T07:37:48;24.00;99.90
32728;DHT22;55292;51.844;19.246;2023-08-24T07:42:54;24.10;99.90
32728;DHT22;55292;51.844;19.246;2023-08-24T07:47:59;24.40;99.90
32728;DHT22;55292;51.844;19.246;2023-08-24T07:53:02;24.40;99.90
32728;DHT22;55292;51.844;19.246;2023-08-24T07:58:05;24.50;99.90
32728;DHT22;55292;51.844;19.246;2023-08-24T08:03:07;24.70;99.10
32728;DHT22;55292;51.844;19.246;2023-08-24T08:08:10;25.20;97.50
32728;DHT22;55292;51.844;19.246;2023-08-24T08:13:13;25.50;97.20
32728;DHT22;55292;51.844;19.246;2023-08-24T08:18:16;25.00;94.00
32728;DHT22;55292;51.844;19.246;2023-08-24T08:23:19;24.90;95.20
32728;DHT22;55292;51.844;19.246;2023-08-24T08:28:21;25.20;96.40
32728;DHT22;55292;51.844;19.246;2023-08-24T08:33:24;25.60;95.80
32728;DHT22;55292;51.844;19.246;2023-08-24T08:38:27;25.90;96.40
32728;DHT22;55292;51.844;19.246;2023-08-24T08:43:30;26.20;93.90
32728;DHT22;55292;51.844;19.246;2023-08-24T08:48:34;25.90;95.50
32728;DHT22;55292;51.844;19.246;2023-08-24T08:53:38;25.60;92.70
32728;DHT22;55292;51.844;19.246;2023-08-24T08:58:40;25.10;95.80
32728;DHT22;55292;51.844;19.246;2023-08-24T09:03:46;25.00;94.00
32728;DHT22;55292;51.844;19.246;2023-08-24T09:08:50;24.80;94.60
32728;DHT22;55292;51.844;19.246;2023-08-24T09:13:53;25.20;94.40
32728;DHT22;55292;51.844;19.246;2023-08-24T09:18:56;24.80;93.10
32728;DHT22;55292;51.844;19.246;2023-08-24T09:23:59;25.00;93.20
32728;DHT22;55292;51.844;19.246;2023-08-24T09:29:12;25.10;94.50
32728;DHT22;55292;51.844;19.246;2023-08-24T09:34:19;25.10;94.40
32728;DHT22;55292;51.844;19.246;2023-08-24T09:39:23;25.10;92.50
32728;DHT22;55292;51.844;19.246;2023-08-24T09:44:27;24.80;92.50
32728;DHT22;55292;51.844;19.246;2023-08-24T09:49:30;24.70;92.90
32728;DHT22;55292;51.844;19.246;2023-08-24T09:54:36;24.70;91.80
32728;DHT22;55292;51.844;19.246;2023-08-24T09:59:41;25.00;92.50
32728;DHT22;55292;51.844;19.246;2023-08-24T10:04:47;24.90;92.80
32728;DHT22;55292;51.844;19.246;2023-08-24T10:09:59;25.20;91.60
32728;DHT22;55292;51.844;19.246;2023-08-24T10:15:05;26.00;91.60
32728;DHT22;55292;51.844;19.246;2023-08-24T10:20:14;26.30;90.80
32728;DHT22;55292;51.844;19.246;2023-08-24T10:25:17;26.50;89.10
32728;DHT22;55292;51.844;19.246;2023-08-24T10:30:24;25.80;91.40
32728;DHT22;55292;51.844;19.246;2023-08-24T10:35:27;26.50;90.70
32728;DHT22;55292;51.844;19.246;2023-08-24T10:40:35;25.70;89.60
32728;DHT22;55292;51.844;19.246;2023-08-24T10:45:58;26.30;90.30
32728;DHT22;55292;51.844;19.246;2023-08-24T10:56:17;26.50;88.50
32728;DHT22;55292;51.844;19.246;2023-08-24T11:01:21;25.80;90.20
32728;DHT22;55292;51.844;19.246;2023-08-24T11:06:25;25.70;89.70
32728;DHT22;55292;51.844;19.246;2023-08-24T11:11:28;25.50;90.60
32728;DHT22;55292;51.844;19.246;2023-08-24T11:16:47;26.00;90.00
32728;DHT22;55292;51.844;19.246;2023-08-24T11:21:51;26.40;91.20
32728;DHT22;55292;51.844;19.246;2023-08-24T11:26:54;26.60;87.50
32728;DHT22;55292;51.844;19.246;2023-08-24T11:31:57;26.60;87.20
32728;DHT22;55292;51.844;19.246;2023-08-24T11:37:00;27.00;83.20
32728;DHT22;55292;51.844;19.246;2023-08-24T11:42:04;27.10;82.30
32728;DHT22;55292;51.844;19.246;2023-08-24T11:47:07;26.70;79.80
32728;DHT22;55292;51.844;19.246;2023-08-24T11:52:10;26.90;85.50
32728;DHT22;55292;51.844;19.246;2023-08-24T11:57:13;27.00;81.70
32728;DHT22;55292;51.844;19.246;2023-08-24T12:02:25;27.00;82.00
32728;DHT22;55292;51.844;19.246;2023-08-24T12:07:28;26.40;82.00
32728;DHT22;55292;51.844;19.246;2023-08-24T12:12:33;26.40;86.20
32728;DHT22;55292;51.844;19.246;2023-08-24T12:17:44;27.00;83.30
32728;DHT22;55292;51.844;19.246;2023-08-24T12:22:55;27.40;82.30
32728;DHT22;55292;51.844;19.246;2023-08-24T12:28:11;27.00;74.90
32728;DHT22;55292;51.844;19.246;2023-08-24T12:33:40;26.80;76.70
32728;DHT22;55292;51.844;19.246;2023-08-24T12:38:43;27.40;79.50
32728;DHT22;55292;51.844;19.246;2023-08-24T12:43:48;27.20;76.10
32728;DHT22;55292;51.844;19.246;2023-08-24T12:48:51;27.30;82.50
32728;DHT22;55292;51.844;19.246;2023-08-24T12:53:57;26.80;77.80
32728;DHT22;55292;51.844;19.246;2023-08-24T12:59:00;26.80;79.20
32728;DHT22;55292;51.844;19.246;2023-08-24T13:04:04;26.50;78.80
32728;DHT22;55292;51.844;19.246;2023-08-24T13:09:07;26.50;78.20
32728;DHT22;55292;51.844;19.246;2023-08-24T13:14:10;27.10;77.70
32728;DHT22;55292;51.844;19.246;2023-08-24T13:19:13;27.50;76.00
32728;DHT22;55292;51.844;19.246;2023-08-24T13:24:15;27.30;78.60
32728;DHT22;55292;51.844;19.246;2023-08-24T13:29:18;27.20;73.40
32728;DHT22;55292;51.844;19.246;2023-08-24T13:34:21;27.10;73.30
32728;DHT22;55292;51.844;19.246;2023-08-24T13:39:27;27.10;73.80
32728;DHT22;55292;51.844;19.246;2023-08-24T13:44:32;27.30;75.20
32728;DHT22;55292;51.844;19.246;2023-08-24T13:49:35;27.10;74.90
32728;DHT22;55292;51.844;19.246;2023-08-24T13:54:42;26.60;75.10
32728;DHT22;55292;51.844;19.246;2023-08-24T13:59:54;26.40;75.00
32728;DHT22;55292;51.844;19.246;2023-08-24T14:04:57;26.40;77.80
32728;DHT22;55292;51.844;19.246;2023-08-24T14:10:00;26.40;75.40
32728;DHT22;55292;51.844;19.246;2023-08-24T14:15:08;26.30;77.20
32728;DHT22;55292;51.844;19.246;2023-08-24T14:20:11;26.20;77.30
32728;DHT22;55292;51.844;19.246;2023-08-24T14:25:15;26.10;73.00
32728;DHT22;55292;51.844;19.246;2023-08-24T14:30:18;26.00;74.90
32728;DHT22;55292;51.844;19.246;2023-08-24T14:35:21;25.70;74.90
32728;DHT22;55292;51.844;19.246;2023-08-24T14:40:23;25.60;77.30
32728;DHT22;55292;51.844;19.246;2023-08-24T14:45:26;25.60;78.20
32728;DHT22;55292;51.844;19.246;2023-08-24T14:50:29;25.70;76.60
32728;DHT22;55292;51.844;19.246;2023-08-24T14:55:31;25.80;77.60
32728;DHT22;55292;51.844;19.246;2023-08-24T15:00:34;25.80;76.10
32728;DHT22;55292;51.844;19.246;2023-08-24T15:05:42;25.70;76.90
32728;DHT22;55292;51.844;19.246;2023-08-24T15:10:45;25.70;76.90
32728;DHT22;55292;51.844;19.246;2023-08-24T15:15:47;25.70;75.30
32728;DHT22;55292;51.844;19.246;2023-08-24T15:20:50;25.60;74.80
32728;DHT22;55292;51.844;19.246;2023-08-24T15:25:55;25.70;75.50
32728;DHT22;55292;51.844;19.246;2023-08-24T15:30:59;25.60;74.40
32728;DHT22;55292;51.844;19.246;2023-08-24T15:36:01;25.20;74.70
32728;DHT22;55292;51.844;19.246;2023-08-24T15:41:04;25.10;78.40
32728;DHT22;55292;51.844;19.246;2023-08-24T15:46:08;25.20;78.80
32728;DHT22;55292;51.844;19.246;2023-08-24T15:51:10;25.30;76.90
32728;DHT22;55292;51.844;19.246;2023-08-24T15:56:13;25.40;75.80
32728;DHT22;55292;51.844;19.246;2023-08-24T16:01:16;25.50;77.20
32728;DHT22;55292;51.844;19.246;2023-08-24T16:06:18;25.60;75.60
32728;DHT22;55292;51.844;19.246;2023-08-24T16:11:21;25.80;73.50
32728;DHT22;55292;51.844;19.246;2023-08-24T16:16:24;26.10;72.10
32728;DHT22;55292;51.844;19.246;2023-08-24T16:21:27;26.00;70.80
32728;DHT22;55292;51.844;19.246;2023-08-24T16:26:30;25.60;73.80
32728;DHT22;55292;51.844;19.246;2023-08-24T16:31:33;25.20;74.30
32728;DHT22;55292;51.844;19.246;2023-08-24T16:36:38;24.90;75.60
32728;DHT22;55292;51.844;19.246;2023-08-24T16:41:43;24.60;78.30
32728;DHT22;55292;51.844;19.246;2023-08-24T16:46:46;24.20;80.90
32728;DHT22;55292;51.844;19.246;2023-08-24T16:51:48;23.70;82.00
32728;DHT22;55292;51.844;19.246;2023-08-24T16:56:51;23.40;84.50
32728;DHT22;55292;51.844;19.246;2023-08-24T17:01:54;23.30;85.40
32728;DHT22;55292;51.844;19.246;2023-08-24T17:06:57;23.00;87.30
32728;DHT22;55292;51.844;19.246;2023-08-24T17:11:59;22.60;88.90
32728;DHT22;55292;51.844;19.246;2023-08-24T17:17:02;22.20;91.90
32728;DHT22;55292;51.844;19.246;2023-08-24T17:22:05;21.70;92.10
32728;DHT22;55292;51.844;19.246;2023-08-24T17:27:08;21.70;92.50
32728;DHT22;55292;51.844;19.246;2023-08-24T17:32:11;21.40;94.10
32728;DHT22;55292;51.844;19.246;2023-08-24T17:37:13;21.20;94.00
32728;DHT22;55292;51.844;19.246;2023-08-24T17:42:16;20.70;95.30
32728;DHT22;55292;51.844;19.246;2023-08-24T17:47:19;20.10;97.40
32728;DHT22;55292;51.844;19.246;2023-08-24T17:52:22;19.80;98.00
32728;DHT22;55292;51.844;19.246;2023-08-24T17:57:24;19.30;99.90
32728;DHT22;55292;51.844;19.246;2023-08-24T18:02:27;19.10;99.90
32728;DHT22;55292;51.844;19.246;2023-08-24T18:07:30;18.90;99.90
32728;DHT22;55292;51.844;19.246;2023-08-24T18:12:32;18.70;99.90
32728;DHT22;55292;51.844;19.246;2023-08-24T18:17:35;18.40;99.90
32728;DHT22;55292;51.844;19.246;2023-08-24T18:22:38;18.30;99.90
32728;DHT22;55292;51.844;19.246;2023-08-24T18:27:41;18.20;99.90
32728;DHT22;55292;51.844;19.246;2023-08-24T18:32:43;18.10;99.90
32728;DHT22;55292;51.844;19.246;2023-08-24T18:37:46;17.80;99.90
32728;DHT22;55292;51.844;19.246;2023-08-24T18:42:49;17.60;99.90
32728;DHT22;55292;51.844;19.246;2023-08-24T18:47:52;17.40;99.90
32728;DHT22;55292;51.844;19.246;2023-08-24T18:52:55;16.70;99.90
32728;DHT22;55292;51.844;19.246;2023-08-24T18:57:58;16.80;99.90
32728;DHT22;55292;51.844;19.246;2023-08-24T19:03:02;17.00;99.90
32728;DHT22;55292;51.844;19.246;2023-08-24T19:08:06;17.00;99.90
32728;DHT22;55292;51.844;19.246;2023-08-24T19:13:09;16.90;99.90
32728;DHT22;55292;51.844;19.246;2023-08-24T19:18:11;16.80;99.90
32728;DHT22;55292;51.844;19.246;2023-08-24T19:28:17;16.50;99.90
32728;DHT22;55292;51.844;19.246;2023-08-24T19:33:21;16.50;99.90
32728;DHT22;55292;51.844;19.246;2023-08-24T19:38:24;16.40;99.90
32728;DHT22;55292;51.844;19.246;2023-08-24T19:43:27;16.30;99.90
32728;DHT22;55292;51.844;19.246;2023-08-24T19:48:29;16.10;99.90
32728;DHT22;55292;51.844;19.246;2023-08-24T19:53:33;16.10;99.90
32728;DHT22;55292;51.844;19.246;2023-08-24T19:58:35;16.10;99.90
32728;DHT22;55292;51.844;19.246;2023-08-24T20:03:38;16.00;99.90
32728;DHT22;55292;51.844;19.246;2023-08-24T20:08:41;15.90;99.90
32728;DHT22;55292;51.844;19.246;2023-08-24T20:13:44;15.80;99.90
32728;DHT22;55292;51.844;19.246;2023-08-24T20:18:46;15.70;99.90
32728;DHT22;55292;51.844;19.246;2023-08-24T20:23:50;15.50;99.90
32728;DHT22;55292;51.844;19.246;2023-08-24T20:28:52;15.40;99.90
32728;DHT22;55292;51.844;19.246;2023-08-24T20:33:55;15.40;99.90
32728;DHT22;55292;51.844;19.246;2023-08-24T20:38:58;15.30;99.90
32728;DHT22;55292;51.844;19.246;2023-08-24T20:44:00;15.20;99.90
32728;DHT22;55292;51.844;19.246;2023-08-24T20:49:03;15.30;99.90
32728;DHT22;55292;51.844;19.246;2023-08-24T20:54:08;15.20;99.90
32728;DHT22;55292;51.844;19.246;2023-08-24T20:59:10;15.20;99.90
32728;DHT22;55292;51.844;19.246;2023-08-24T21:04:13;15.00;99.90
32728;DHT22;55292;51.844;19.246;2023-08-24T21:09:16;14.80;99.90
32728;DHT22;55292;51.844;19.246;2023-08-24T21:14:19;14.80;99.90
32728;DHT22;55292;51.844;19.246;2023-08-24T21:19:22;14.80;99.90
32728;DHT22;55292;51.844;19.246;2023-08-24T21:24:24;14.80;99.90
32728;DHT22;55292;51.844;19.246;2023-08-24T21:29:27;14.90;99.90
32728;DHT22;55292;51.844;19.246;2023-08-24T21:34:30;12.40;99.90
32728;DHT22;55292;51.844;19.246;2023-08-24T21:39:33;14.70;99.90
32728;DHT22;55292;51.844;19.246;2023-08-24T21:44:36;14.70;99.90
32728;DHT22;55292;51.844;19.246;2023-08-24T21:49:39;14.90;99.90
32728;DHT22;55292;51.844;19.246;2023-08-24T21:54:41;15.00;99.90
32728;DHT22;55292;51.844;19.246;2023-08-24T21:59:44;14.80;99.90
32728;DHT22;55292;51.844;19.246;2023-08-24T22:04:47;14.40;99.90
32728;DHT22;55292;51.844;19.246;2023-08-24T22:09:50;14.20;99.90
32728;DHT22;55292;51.844;19.246;2023-08-24T22:14:53;14.10;99.90
32728;DHT22;55292;51.844;19.246;2023-08-24T22:19:56;14.10;99.90
32728;DHT22;55292;51.844;19.246;2023-08-24T22:24:59;14.20;99.90
32728;DHT22;55292;51.844;19.246;2023-08-24T22:30:02;14.40;99.90
32728;DHT22;55292;51.844;19.246;2023-08-24T22:35:06;14.50;99.90
32728;DHT22;55292;51.844;19.246;2023-08-24T22:40:09;14.30;99.90
32728;DHT22;55292;51.844;19.246;2023-08-24T22:45:12;14.60;99.90
32728;DHT22;55292;51.844;19.246;2023-08-24T22:50:15;14.60;99.90
32728;DHT22;55292;51.844;19.246;2023-08-24T22:55:19;14.30;99.90
32728;DHT22;55292;51.844;19.246;2023-08-24T23:00:22;14.20;99.90
32728;DHT22;55292;51.844;19.246;2023-08-24T23:05:24;14.50;99.90
32728;DHT22;55292;51.844;19.246;2023-08-24T23:10:27;14.60;99.90
32728;DHT22;55292;51.844;19.246;2023-08-24T23:15:30;14.80;99.90
32728;DHT22;55292;51.844;19.246;2023-08-24T23:20:34;14.80;99.90
32728;DHT22;55292;51.844;19.246;2023-08-24T23:25:37;14.90;99.90
32728;DHT22;55292;51.844;19.246;2023-08-24T23:30:40;14.90;99.90
32728;DHT22;55292;51.844;19.246;2023-08-24T23:35:45;14.50;99.90
32728;DHT22;55292;51.844;19.246;2023-08-24T23:40:48;14.30;99.90
32728;DHT22;55292;51.844;19.246;2023-08-24T23:45:51;14.10;99.90
32728;DHT22;55292;51.844;19.246;2023-08-24T23:50:54;14.10;99.90
32728;DHT22;55292;51.844;19.246;2023-08-24T23:55:58;14.30;99.90
